createdAt,value
2019-01-25T00:00:56.155Z,15.40
2019-01-25T00:03:30.455Z,18.00
2019-01-25T00:06:05.154Z,16.53
2019-01-25T00:08:39.566Z,17.40
2019-01-25T00:11:13.859Z,18.47
2019-01-25T00:13:48.176Z,14.70
2019-01-25T00:16:22.476Z,17.33
2019-01-25T00:18:56.806Z,15.03
2019-01-25T00:21:31.105Z,18.33
2019-01-25T00:24:05.800Z,17.37
2019-01-25T00:26:40.100Z,16.30
2019-01-25T00:29:14.430Z,13.73
2019-01-25T00:31:48.729Z,14.10
2019-01-25T00:34:23.134Z,14.90
2019-01-25T00:36:57.436Z,15.03
2019-01-25T00:39:31.756Z,14.00
2019-01-25T00:42:06.180Z,12.03
2019-01-25T00:44:40.477Z,11.87
2019-01-25T00:47:14.806Z,11.73
2019-01-25T00:49:49.112Z,12.77
2019-01-25T00:52:23.913Z,13.87
2019-01-25T00:54:58.234Z,14.33
2019-01-25T00:57:32.530Z,14.00
2019-01-25T01:00:14.647Z,12.80
2019-01-25T01:02:48.946Z,14.23
2019-01-25T01:05:23.280Z,13.30
2019-01-25T01:07:57.573Z,15.10
2019-01-25T01:10:31.901Z,13.80
2019-01-25T01:13:06.197Z,13.97
2019-01-25T01:15:40.535Z,12.97
2019-01-25T01:18:14.834Z,14.17
2019-01-25T01:20:49.160Z,8.90
2019-01-25T01:23:23.477Z,8.93
2019-01-25T01:25:57.800Z,13.87
2019-01-25T01:28:32.122Z,12.60
2019-01-25T01:31:06.446Z,14.57
2019-01-25T01:33:40.774Z,12.80
2019-01-25T01:36:15.064Z,9.57
2019-01-25T01:38:49.406Z,11.20
2019-01-25T01:41:23.703Z,13.77
2019-01-25T01:43:58.023Z,14.67
2019-01-25T01:46:32.354Z,13.13
2019-01-25T01:49:06.675Z,11.90
2019-01-25T01:51:40.973Z,13.17
2019-01-25T01:54:15.294Z,13.33
2019-01-25T01:56:49.629Z,11.93
2019-01-25T01:59:23.943Z,9.47
2019-01-25T02:01:58.319Z,12.40
2019-01-25T02:04:32.618Z,11.97
2019-01-25T02:07:06.939Z,7.87
2019-01-25T02:09:41.265Z,10.30
2019-01-25T02:12:15.632Z,10.20
2019-01-25T02:14:49.954Z,11.87
2019-01-25T02:17:24.253Z,12.53
2019-01-25T02:19:58.581Z,12.33
2019-01-25T02:22:32.881Z,12.33
2019-01-25T02:25:07.884Z,12.63
2019-01-25T02:27:42.189Z,14.00
2019-01-25T02:30:22.473Z,12.70
2019-01-25T02:32:56.805Z,10.67
2019-01-25T02:35:31.129Z,13.03
2019-01-25T02:38:05.423Z,9.27
2019-01-25T02:40:39.758Z,11.50
2019-01-25T02:43:14.059Z,12.27
2019-01-25T02:45:48.390Z,11.97
2019-01-25T02:48:22.690Z,12.10
2019-01-25T02:50:57.005Z,10.80
2019-01-25T02:53:31.336Z,10.67
2019-01-25T02:56:05.733Z,10.97
2019-01-25T02:58:40.032Z,9.40
2019-01-25T03:01:14.352Z,10.00
2019-01-25T03:03:48.651Z,12.27
2019-01-25T03:06:22.987Z,10.83
2019-01-25T03:08:57.307Z,11.50
2019-01-25T03:11:31.632Z,10.93
2019-01-25T03:14:05.999Z,8.70
2019-01-25T03:16:40.335Z,10.87
2019-01-25T03:19:14.655Z,8.40
2019-01-25T03:21:48.953Z,6.60
2019-01-25T03:24:23.276Z,10.40
2019-01-25T03:27:00.048Z,10.93
2019-01-25T03:29:33.624Z,8.07
2019-01-25T03:32:07.925Z,9.67
2019-01-25T03:34:42.247Z,9.70
2019-01-25T03:37:16.570Z,11.80
2019-01-25T03:39:50.894Z,7.77
2019-01-25T03:42:25.192Z,9.33
2019-01-25T03:44:59.508Z,10.93
2019-01-25T03:47:33.856Z,9.40
2019-01-25T03:50:18.760Z,9.50
2019-01-25T03:52:53.772Z,9.23
2019-01-25T03:55:28.332Z,10.07
2019-01-25T03:58:02.663Z,6.30
2019-01-25T04:00:36.991Z,10.50
2019-01-25T04:03:11.291Z,9.20
2019-01-25T04:05:45.619Z,10.57
2019-01-25T04:08:19.912Z,6.40
2019-01-25T04:10:54.239Z,10.10
2019-01-25T04:13:28.567Z,9.03
2019-01-25T04:16:02.866Z,9.53
2019-01-25T04:18:37.187Z,9.23
2019-01-25T04:21:11.504Z,6.90
2019-01-25T04:23:45.823Z,9.27
2019-01-25T04:26:20.156Z,9.63
2019-01-25T04:28:56.099Z,9.00
2019-01-25T04:31:30.439Z,8.83
2019-01-25T04:34:04.723Z,8.03
2019-01-25T04:36:39.047Z,9.00
2019-01-25T04:39:13.362Z,9.53
2019-01-25T04:41:47.665Z,10.03
2019-01-25T04:44:21.983Z,11.13
2019-01-25T04:46:56.285Z,9.63
2019-01-25T04:49:31.707Z,11.17
2019-01-25T04:52:12.467Z,8.60
2019-01-25T04:54:46.804Z,10.53
2019-01-25T04:57:21.211Z,9.90
2019-01-25T04:59:55.569Z,8.67
2019-01-25T05:02:29.877Z,10.27
2019-01-25T05:05:05.433Z,8.83
2019-01-25T05:07:39.735Z,10.53
2019-01-25T05:10:14.069Z,10.13
2019-01-25T05:12:53.344Z,7.97
2019-01-25T05:15:27.635Z,9.30
2019-01-25T05:18:01.963Z,9.27
2019-01-25T05:20:36.262Z,8.80
2019-01-25T05:23:10.656Z,8.03
2019-01-25T05:25:44.953Z,6.27
2019-01-25T05:28:19.366Z,3.97
2019-01-25T05:30:59.472Z,8.20
2019-01-25T05:33:33.788Z,7.87
2019-01-25T05:36:08.085Z,9.30
2019-01-25T05:38:46.059Z,7.93
2019-01-25T05:41:27.881Z,9.80
2019-01-25T05:43:56.448Z,7.63
2019-01-25T05:46:30.741Z,8.10
2019-01-25T05:49:05.072Z,12.53
2019-01-25T05:51:39.396Z,11.77
2019-01-25T05:54:13.695Z,7.40
2019-01-25T05:56:48.022Z,7.13
2019-01-25T05:59:24.379Z,8.67
2019-01-25T06:01:58.705Z,10.73
2019-01-25T06:04:38.613Z,17.73
2019-01-25T06:07:12.911Z,14.27
2019-01-25T06:09:47.244Z,9.90
2019-01-25T06:12:21.534Z,14.50
2019-01-25T06:14:55.861Z,10.67
2019-01-25T06:17:30.155Z,9.73
2019-01-25T06:20:07.612Z,9.00
2019-01-25T06:22:41.944Z,13.90
2019-01-25T06:25:16.268Z,10.23
2019-01-25T06:27:50.565Z,10.70
2019-01-25T06:30:24.894Z,10.33
2019-01-25T06:32:59.194Z,12.30
2019-01-25T06:35:33.526Z,15.77
2019-01-25T06:38:07.925Z,13.37
2019-01-25T06:40:42.222Z,10.67
2019-01-25T06:43:16.549Z,12.27
2019-01-25T06:45:50.878Z,11.70
2019-01-25T06:48:25.176Z,9.90
2019-01-25T06:50:59.497Z,8.33
2019-01-25T06:53:33.793Z,12.10
2019-01-25T06:56:08.128Z,14.53
2019-01-25T06:58:44.096Z,14.60
2019-01-25T07:01:23.004Z,13.07
2019-01-25T07:03:57.306Z,13.20
2019-01-25T07:06:31.647Z,13.03
2019-01-25T07:09:09.082Z,10.73
2019-01-25T07:11:43.413Z,12.87
2019-01-25T07:14:17.742Z,11.67
2019-01-25T07:16:52.043Z,15.13
2019-01-25T07:19:26.367Z,13.27
2019-01-25T07:22:00.703Z,13.17
2019-01-25T07:24:34.999Z,12.50
2019-01-25T07:27:09.342Z,17.17
2019-01-25T07:29:43.652Z,23.40
2019-01-25T07:32:18.321Z,30.37
2019-01-25T07:34:52.651Z,15.50
2019-01-25T07:37:27.041Z,25.60
2019-01-25T07:40:01.390Z,23.90
2019-01-25T07:42:35.663Z,15.37
2019-01-25T07:45:13.282Z,17.17
2019-01-25T07:47:47.582Z,21.37
2019-01-25T07:50:23.191Z,23.53
2019-01-25T07:52:57.502Z,25.27
2019-01-25T07:55:31.812Z,23.57
2019-01-25T07:58:06.175Z,25.03
2019-01-25T08:00:40.546Z,28.93
2019-01-25T08:03:15.026Z,38.27
2019-01-25T08:05:49.354Z,32.67
2019-01-25T08:08:23.694Z,31.80
2019-01-25T08:10:58.058Z,29.50
2019-01-25T08:13:33.285Z,31.40
2019-01-25T08:16:07.571Z,29.40
2019-01-25T08:18:41.903Z,28.17
2019-01-25T08:21:16.277Z,26.20
2019-01-25T08:23:50.650Z,26.63
2019-01-25T08:26:24.957Z,24.60
2019-01-25T08:28:59.277Z,27.00
2019-01-25T08:31:33.609Z,23.80
2019-01-25T08:34:07.897Z,23.37
2019-01-25T08:36:42.225Z,23.83
2019-01-25T08:39:16.521Z,24.10
2019-01-25T08:41:50.863Z,28.17
2019-01-25T08:44:25.248Z,26.60
2019-01-25T08:46:59.557Z,23.90
2019-01-25T08:49:33.973Z,24.53
2019-01-25T08:52:08.426Z,23.20
2019-01-25T08:54:44.326Z,20.07
2019-01-25T08:57:18.667Z,22.27
2019-01-25T08:59:53.051Z,25.90
2019-01-25T09:02:27.348Z,23.80
2019-01-25T09:05:01.683Z,24.77
2019-01-25T09:07:36.008Z,25.20
2019-01-25T09:10:17.676Z,24.77
2019-01-25T09:12:52.005Z,24.20
2019-01-25T09:15:32.606Z,23.77
2019-01-25T09:18:06.944Z,24.30
2019-01-25T09:20:41.242Z,22.10
2019-01-25T09:23:15.583Z,21.03
2019-01-25T09:25:49.873Z,19.20
2019-01-25T09:28:24.203Z,18.60
2019-01-25T09:30:58.529Z,19.47
2019-01-25T09:33:32.827Z,21.37
2019-01-25T09:36:07.216Z,21.37
2019-01-25T09:38:41.562Z,20.90
2019-01-25T09:41:15.885Z,21.30
2019-01-25T09:43:50.190Z,20.77
2019-01-25T09:46:24.803Z,21.77
2019-01-25T09:48:59.267Z,21.90
2019-01-25T09:51:33.824Z,20.27
2019-01-25T09:54:08.188Z,19.17
2019-01-25T09:56:42.517Z,35.17
2019-01-25T09:59:16.925Z,29.97
2019-01-25T10:01:51.211Z,27.33
2019-01-25T10:04:25.536Z,28.63
2019-01-25T10:06:59.823Z,27.33
2019-01-25T10:09:34.142Z,27.60
2019-01-25T10:12:08.497Z,28.63
2019-01-25T10:14:42.823Z,30.07
2019-01-25T10:17:17.148Z,29.27
2019-01-25T10:19:52.465Z,30.67
2019-01-25T10:22:26.757Z,33.53
2019-01-25T10:25:01.157Z,35.60
2019-01-25T10:27:35.451Z,33.83
2019-01-25T10:30:17.209Z,32.70
2019-01-25T10:32:51.551Z,35.03
2019-01-25T10:35:25.880Z,31.80
2019-01-25T10:38:00.329Z,32.93
2019-01-25T10:40:34.619Z,32.97
2019-01-25T10:43:09.154Z,30.93
2019-01-25T10:45:44.443Z,31.23
2019-01-25T10:48:19.006Z,29.67
2019-01-25T10:50:53.363Z,30.07
2019-01-25T10:53:27.810Z,31.03
2019-01-25T10:56:02.722Z,31.93
2019-01-25T10:58:37.262Z,35.97
2019-01-25T11:01:11.614Z,31.73
2019-01-25T11:03:46.728Z,31.70
2019-01-25T11:06:21.233Z,33.23
2019-01-25T11:08:55.512Z,33.07
2019-01-25T11:11:29.839Z,31.87
2019-01-25T11:14:04.379Z,29.00
2019-01-25T11:16:38.822Z,31.07
2019-01-25T11:19:13.115Z,33.07
2019-01-25T11:21:47.483Z,32.87
2019-01-25T11:24:21.796Z,33.47
2019-01-25T11:27:00.293Z,30.87
2019-01-25T11:29:32.270Z,34.87
2019-01-25T11:32:06.572Z,33.20
2019-01-25T11:34:40.952Z,31.67
2019-01-25T11:37:15.284Z,34.73
2019-01-25T11:39:49.585Z,32.23
2019-01-25T11:42:23.909Z,33.13
2019-01-25T11:44:58.203Z,31.70
2019-01-25T11:47:32.531Z,31.43
2019-01-25T11:50:11.787Z,29.23
2019-01-25T11:52:46.080Z,30.97
2019-01-25T11:55:20.569Z,29.67
2019-01-25T11:57:54.857Z,33.00
2019-01-25T12:00:32.721Z,31.67
2019-01-25T12:03:07.017Z,32.33
2019-01-25T12:05:41.340Z,30.63
2019-01-25T12:08:15.726Z,32.07
2019-01-25T12:10:50.015Z,30.03
2019-01-25T12:13:24.409Z,29.47
2019-01-25T12:15:58.730Z,30.03
2019-01-25T12:18:33.088Z,28.20
2019-01-25T12:21:07.406Z,25.03
2019-01-25T12:23:41.697Z,25.00
2019-01-25T12:26:16.031Z,26.33
2019-01-25T12:28:50.322Z,24.70
2019-01-25T12:31:24.647Z,25.67
2019-01-25T12:33:58.940Z,26.10
2019-01-25T12:36:33.264Z,27.27
2019-01-25T12:39:08.600Z,25.00
2019-01-25T12:41:42.912Z,23.70
2019-01-25T12:44:17.248Z,24.50
2019-01-25T12:46:51.567Z,26.00
2019-01-25T12:49:25.893Z,23.40
2019-01-25T12:52:00.216Z,24.17
2019-01-25T12:54:34.525Z,22.03
2019-01-25T12:57:08.858Z,22.57
2019-01-25T12:59:43.145Z,21.30
2019-01-25T13:02:17.511Z,20.77
2019-01-25T13:04:51.868Z,21.33
2019-01-25T13:07:26.186Z,21.80
2019-01-25T13:10:00.505Z,21.13
2019-01-25T13:12:34.801Z,18.73
2019-01-25T13:15:11.836Z,22.23
2019-01-25T13:17:46.137Z,25.70
2019-01-25T13:20:23.659Z,24.70
2019-01-25T13:22:59.570Z,24.07
2019-01-25T13:25:33.783Z,25.87
2019-01-25T13:28:08.142Z,26.23
2019-01-25T13:30:42.433Z,26.83
2019-01-25T13:33:16.756Z,27.97
2019-01-25T13:35:51.051Z,27.63
2019-01-25T13:38:25.445Z,27.33
2019-01-25T13:40:59.736Z,27.90
2019-01-25T13:43:38.990Z,29.73
2019-01-25T13:46:10.083Z,29.70
2019-01-25T13:48:44.399Z,29.33
2019-01-25T13:51:18.715Z,27.33
2019-01-25T13:53:53.039Z,25.97
2019-01-25T13:56:27.351Z,27.27
2019-01-25T13:59:01.644Z,26.53
2019-01-25T14:01:35.954Z,26.50
2019-01-25T14:04:10.266Z,30.50
2019-01-25T14:06:44.592Z,30.77
2019-01-25T14:09:18.885Z,30.00
2019-01-25T14:11:53.203Z,30.80
2019-01-25T14:14:27.537Z,26.97
2019-01-25T14:17:01.813Z,26.23
2019-01-25T14:19:36.131Z,27.57
2019-01-25T14:22:10.449Z,26.43
2019-01-25T14:24:44.745Z,25.77
2019-01-25T14:27:19.081Z,23.40
2019-01-25T14:29:53.399Z,22.57
2019-01-25T14:32:27.697Z,24.93
2019-01-25T14:35:02.013Z,23.07
2019-01-25T14:37:36.331Z,25.07
2019-01-25T14:40:10.629Z,24.00
2019-01-25T14:42:44.951Z,19.67
2019-01-25T14:45:20.780Z,20.40
2019-01-25T14:47:55.095Z,21.37
2019-01-25T14:50:32.014Z,9.27
2019-01-25T14:53:06.701Z,13.53
2019-01-25T14:55:41.016Z,11.77
2019-01-25T14:58:15.310Z,11.97
2019-01-25T15:00:49.634Z,11.13
2019-01-25T15:03:23.929Z,12.17
2019-01-25T15:05:58.282Z,12.53
2019-01-25T15:08:32.543Z,12.40
2019-01-25T15:11:06.862Z,12.60
2019-01-25T15:13:41.253Z,11.10
2019-01-25T15:16:15.579Z,11.90
2019-01-25T15:18:49.898Z,11.50
2019-01-25T15:21:24.187Z,12.17
2019-01-25T15:23:58.511Z,12.10
2019-01-25T15:26:32.798Z,12.50
2019-01-25T15:29:07.132Z,10.73
2019-01-25T15:31:41.420Z,10.67
2019-01-25T15:34:15.735Z,10.90
2019-01-25T15:36:50.023Z,11.93
2019-01-25T15:39:24.346Z,12.23
2019-01-25T15:41:58.633Z,11.97
2019-01-25T15:44:32.961Z,11.67
2019-01-25T15:47:07.278Z,11.20
2019-01-25T15:49:41.584Z,10.43
2019-01-25T15:52:15.895Z,10.43
2019-01-25T15:54:50.220Z,12.50
2019-01-25T15:57:24.509Z,10.97
2019-01-25T15:59:58.820Z,9.37
2019-01-25T16:02:33.145Z,10.17
2019-01-25T16:05:10.079Z,10.60
2019-01-25T16:07:44.406Z,11.73
2019-01-25T16:10:21.217Z,12.10
2019-01-25T16:12:55.623Z,11.63
2019-01-25T16:15:30.602Z,12.03
2019-01-25T16:18:04.886Z,12.57
2019-01-25T16:20:39.208Z,12.37
2019-01-25T16:23:13.511Z,14.00
2019-01-25T16:25:47.851Z,13.07
2019-01-25T16:28:22.136Z,13.53
2019-01-25T16:30:56.469Z,13.70
2019-01-25T16:33:30.788Z,14.07
2019-01-25T16:36:05.093Z,12.93
2019-01-25T16:38:39.419Z,13.77
2019-01-25T16:41:13.744Z,16.63
2019-01-25T16:43:48.066Z,18.40
2019-01-25T16:46:22.387Z,16.50
2019-01-25T16:48:56.719Z,21.20
2019-01-25T16:51:31.020Z,18.07
2019-01-25T16:54:05.611Z,14.53
2019-01-25T16:56:39.932Z,13.93
2019-01-25T16:59:14.232Z,15.50
2019-01-25T17:01:48.567Z,14.67
2019-01-25T17:04:22.911Z,14.53
2019-01-25T17:06:57.272Z,15.73
2019-01-25T17:09:31.563Z,14.20
2019-01-25T17:12:05.887Z,25.50
2019-01-25T17:14:40.216Z,12.37
2019-01-25T17:17:14.540Z,12.63
2019-01-25T17:19:48.915Z,13.33
2019-01-25T17:22:23.238Z,13.83
2019-01-25T17:24:57.570Z,13.73
2019-01-25T17:27:31.908Z,14.37
2019-01-25T17:30:19.752Z,15.53
2019-01-25T17:32:56.202Z,15.33
2019-01-25T17:35:31.412Z,17.30
2019-01-25T17:38:05.801Z,25.73
2019-01-25T17:40:46.669Z,23.07
2019-01-25T17:43:18.984Z,26.70
2019-01-25T17:45:53.282Z,20.80
2019-01-25T17:48:27.611Z,25.20
2019-01-25T17:51:01.911Z,24.47
2019-01-25T17:53:36.238Z,31.83
2019-01-25T17:56:10.546Z,29.57
2019-01-25T17:58:44.886Z,36.90
2019-01-25T18:01:19.192Z,33.53
2019-01-25T18:03:53.536Z,39.07
2019-01-25T18:06:27.838Z,34.13
2019-01-25T18:09:02.169Z,35.23
2019-01-25T18:11:36.467Z,34.63
2019-01-25T18:14:10.801Z,32.97
2019-01-25T18:16:45.125Z,24.97
2019-01-25T18:19:19.451Z,26.77
2019-01-25T18:21:53.791Z,31.50
2019-01-25T18:24:28.085Z,22.53
2019-01-25T18:27:02.412Z,27.77
2019-01-25T18:29:36.883Z,25.07
2019-01-25T18:32:11.183Z,23.87
2019-01-25T18:34:45.507Z,24.67
2019-01-25T18:37:19.803Z,22.97
2019-01-25T18:39:54.124Z,28.77
2019-01-25T18:42:28.427Z,28.53
2019-01-25T18:45:02.746Z,27.03
2019-01-25T18:47:37.045Z,22.87
2019-01-25T18:50:15.542Z,23.47
2019-01-25T18:52:49.835Z,21.10
2019-01-25T18:55:26.072Z,21.83
2019-01-25T18:58:00.406Z,21.90
2019-01-25T19:00:34.705Z,21.63
2019-01-25T19:03:09.022Z,20.47
2019-01-25T19:05:43.341Z,20.67
2019-01-25T19:08:17.665Z,17.50
2019-01-25T19:10:51.973Z,17.00
2019-01-25T19:13:26.292Z,18.37
2019-01-25T19:16:00.589Z,19.60
2019-01-25T19:18:34.910Z,17.00
2019-01-25T19:21:09.238Z,20.20
2019-01-25T19:23:43.582Z,18.33
2019-01-25T19:26:19.501Z,12.40
2019-01-25T19:28:53.988Z,20.17
2019-01-25T19:31:28.327Z,16.53
2019-01-25T19:34:02.623Z,20.40
2019-01-25T19:36:36.955Z,17.37
2019-01-25T19:39:11.352Z,18.07
2019-01-25T19:41:45.663Z,16.23
2019-01-25T19:44:19.993Z,18.40
2019-01-25T19:46:54.290Z,16.37
2019-01-25T19:49:28.617Z,16.83
2019-01-25T19:52:02.921Z,17.87
2019-01-25T19:54:37.245Z,13.23
2019-01-25T19:57:11.546Z,15.90
2019-01-25T19:59:45.878Z,17.37
2019-01-25T20:02:20.174Z,9.03
2019-01-25T20:04:54.513Z,13.30
2019-01-25T20:07:28.811Z,16.30
2019-01-25T20:10:04.082Z,15.87
2019-01-25T20:12:38.389Z,14.87
2019-01-25T20:15:20.263Z,13.83
2019-01-25T20:17:54.587Z,13.97
2019-01-25T20:20:35.497Z,13.50
2019-01-25T20:23:09.838Z,14.17
2019-01-25T20:25:44.139Z,16.53
2019-01-25T20:28:18.468Z,17.60
2019-01-25T20:30:52.761Z,9.33
2019-01-25T20:33:27.089Z,10.93
2019-01-25T20:36:01.457Z,15.23
2019-01-25T20:38:35.798Z,16.73
2019-01-25T20:41:10.099Z,16.73
2019-01-25T20:43:44.427Z,14.03
2019-01-25T20:46:18.727Z,17.03
2019-01-25T20:48:53.043Z,12.83
2019-01-25T20:51:27.338Z,13.67
2019-01-25T20:54:01.669Z,14.97
2019-01-25T20:56:35.961Z,13.77
2019-01-25T20:59:10.284Z,13.77
2019-01-25T21:01:44.584Z,15.33
2019-01-25T21:04:18.921Z,13.17
2019-01-25T21:06:53.219Z,14.07
2019-01-25T21:09:27.558Z,10.97
2019-01-25T21:12:01.858Z,14.93
2019-01-25T21:14:36.181Z,14.77
2019-01-25T21:17:10.506Z,14.53
2019-01-25T21:19:44.809Z,14.60
2019-01-25T21:22:19.136Z,15.77
2019-01-25T21:24:53.462Z,12.83
2019-01-25T21:27:27.784Z,11.03
2019-01-25T21:30:02.106Z,13.20
2019-01-25T21:32:36.437Z,13.53
2019-01-25T21:35:11.017Z,13.23
2019-01-25T21:37:45.317Z,16.63
2019-01-25T21:40:28.567Z,14.17
2019-01-25T21:43:02.867Z,17.23
2019-01-25T21:45:42.872Z,16.20
2019-01-25T21:48:13.260Z,17.27
2019-01-25T21:50:47.723Z,14.07
2019-01-25T21:53:22.058Z,13.00
2019-01-25T21:55:56.401Z,15.57
2019-01-25T21:58:30.696Z,15.37
2019-01-25T22:01:05.261Z,12.93
2019-01-25T22:03:39.591Z,14.77
2019-01-25T22:06:13.908Z,13.03
2019-01-25T22:08:48.221Z,13.40
2019-01-25T22:11:22.524Z,16.10
2019-01-25T22:13:56.848Z,14.80
2019-01-25T22:16:31.150Z,10.70
2019-01-25T22:19:05.484Z,14.20
2019-01-25T22:21:39.807Z,13.53
2019-01-25T22:24:14.136Z,15.53
2019-01-25T22:26:48.458Z,14.93
2019-01-25T22:29:23.150Z,7.63
2019-01-25T22:31:57.443Z,10.90
2019-01-25T22:34:31.767Z,11.47
2019-01-25T22:37:06.064Z,13.17
2019-01-25T22:39:40.386Z,14.17
2019-01-25T22:42:14.702Z,13.90
2019-01-25T22:44:49.028Z,8.20
2019-01-25T22:47:23.324Z,11.00
2019-01-25T22:49:57.649Z,15.60
2019-01-25T22:52:31.949Z,12.77
2019-01-25T22:55:13.493Z,8.17
2019-01-25T22:57:47.822Z,9.17
2019-01-25T23:00:50.596Z,11.33
2019-01-25T23:03:41.515Z,11.87
2019-01-25T23:06:20.733Z,10.00
2019-01-25T23:08:56.848Z,10.27
2019-01-25T23:11:31.177Z,12.60
2019-01-25T23:14:07.032Z,10.87
2019-01-25T23:16:41.428Z,10.20
2019-01-25T23:19:15.728Z,5.97
2019-01-25T23:21:50.395Z,11.13
2019-01-25T23:24:24.798Z,8.40
2019-01-25T23:27:00.882Z,6.40
2019-01-25T23:29:35.192Z,8.43
2019-01-25T23:32:09.525Z,10.00
2019-01-25T23:34:43.866Z,9.53
2019-01-25T23:37:18.173Z,10.03
2019-01-25T23:39:52.474Z,5.40
2019-01-25T23:42:26.796Z,8.80
2019-01-25T23:45:01.097Z,10.53
2019-01-25T23:47:35.420Z,11.67
2019-01-25T23:50:10.186Z,9.23
2019-01-25T23:52:44.506Z,9.40
2019-01-25T23:55:18.918Z,10.97
2019-01-25T23:57:53.338Z,9.53
